createdAt,value
2023-01-13T00:00:33.937Z,4.41
2023-01-13T00:05:26.953Z,4.35
2023-01-13T00:10:19.956Z,4.30
2023-01-13T00:15:13.706Z,4.27
2023-01-13T00:20:07.340Z,4.26
2023-01-13T00:25:01.674Z,4.25
2023-01-13T00:29:54.715Z,4.24
2023-01-13T00:34:47.578Z,4.22
2023-01-13T00:39:40.452Z,4.19
2023-01-13T00:44:33.367Z,4.18
2023-01-13T00:49:26.637Z,4.16
2023-01-13T00:54:19.870Z,4.16
2023-01-13T00:59:14.649Z,4.15
2023-01-13T01:04:08.263Z,4.14
2023-01-13T01:09:01.175Z,4.14
2023-01-13T01:13:56.357Z,4.14
2023-01-13T01:18:50.969Z,4.11
2023-01-13T01:23:44.179Z,4.07
2023-01-13T01:28:37.130Z,4.07
2023-01-13T01:33:30.031Z,4.07
2023-01-13T01:38:23.744Z,4.09
2023-01-13T01:43:38.318Z,4.11
2023-01-13T01:48:40.433Z,4.12
2023-01-13T01:53:34.610Z,4.14
2023-01-13T01:58:33.824Z,4.16
2023-01-13T02:03:27.070Z,4.15
2023-01-13T02:08:20.726Z,4.10
2023-01-13T02:13:15.192Z,4.03
2023-01-13T02:18:29.678Z,3.97
2023-01-13T02:24:11.617Z,3.95
2023-01-13T02:29:56.079Z,3.95
2023-01-13T02:35:03.288Z,3.98
2023-01-13T02:40:02.076Z,4.01
2023-01-13T02:45:14.370Z,4.02
2023-01-13T02:50:14.128Z,4.06
2023-01-13T02:55:12.772Z,4.09
2023-01-13T03:00:08.823Z,4.14
2023-01-13T03:05:01.836Z,4.18
2023-01-13T03:10:18.786Z,4.21
2023-01-13T03:15:37.238Z,4.25
2023-01-13T03:20:36.302Z,4.27
2023-01-13T03:25:44.133Z,4.28
2023-01-13T03:30:49.913Z,4.29
2023-01-13T03:35:47.078Z,4.29
2023-01-13T03:40:52.051Z,4.30
2023-01-13T03:45:48.991Z,4.33
2023-01-13T03:50:59.578Z,4.38
2023-01-13T03:55:58.880Z,4.42
2023-01-13T04:01:01.300Z,4.45
2023-01-13T04:06:03.135Z,4.49
2023-01-13T04:11:07.942Z,4.52
2023-01-13T04:16:01.753Z,4.55
2023-01-13T04:20:57.432Z,4.59
2023-01-13T04:25:50.750Z,4.63
2023-01-13T04:30:44.513Z,4.65
2023-01-13T04:35:37.936Z,4.68
2023-01-13T04:40:30.885Z,4.70
2023-01-13T04:45:24.051Z,4.73
2023-01-13T04:50:19.673Z,4.75
2023-01-13T04:55:12.456Z,4.77
2023-01-13T05:00:08.069Z,4.77
2023-01-13T05:05:01.289Z,4.79
2023-01-13T05:09:54.120Z,4.81
2023-01-13T05:15:04.531Z,4.83
2023-01-13T05:19:57.314Z,4.83
2023-01-13T05:25:07.873Z,4.84
2023-01-13T05:30:00.775Z,4.84
2023-01-13T05:34:53.617Z,4.84
2023-01-13T05:40:03.904Z,4.83
2023-01-13T05:44:56.699Z,4.83
2023-01-13T05:49:49.568Z,4.84
2023-01-13T05:54:42.417Z,4.85
2023-01-13T05:59:35.867Z,4.86
2023-01-13T06:04:28.772Z,4.86
2023-01-13T06:09:22.877Z,4.84
2023-01-13T06:14:15.825Z,4.81
2023-01-13T06:19:09.531Z,4.79
2023-01-13T06:24:02.799Z,4.76
2023-01-13T06:28:55.865Z,4.73
2023-01-13T06:33:56.493Z,4.71
2023-01-13T06:38:53.751Z,4.70
2023-01-13T06:43:46.829Z,4.70
2023-01-13T06:48:39.640Z,4.69
2023-01-13T06:53:33.076Z,4.68
2023-01-13T06:58:25.891Z,4.66
2023-01-13T07:03:20.144Z,4.66
2023-01-13T07:08:13.097Z,4.67
2023-01-13T07:13:24.729Z,4.69
2023-01-13T07:18:17.562Z,4.72
2023-01-13T07:23:10.358Z,4.75
2023-01-13T07:28:03.152Z,4.79
2023-01-13T07:32:57.324Z,4.85
2023-01-13T07:37:50.292Z,4.89
2023-01-13T07:43:00.706Z,4.94
2023-01-13T07:47:54.244Z,4.99
2023-01-13T07:52:47.091Z,5.02
2023-01-13T07:57:39.915Z,5.04
2023-01-13T08:02:32.988Z,5.07
2023-01-13T08:07:25.919Z,5.11
2023-01-13T08:12:36.063Z,5.16
2023-01-13T08:17:28.855Z,5.21
2023-01-13T08:22:22.868Z,5.26
2023-01-13T08:27:15.765Z,5.32
2023-01-13T08:32:08.595Z,5.39
2023-01-13T08:37:01.404Z,5.45
2023-01-13T08:41:57.716Z,5.51
2023-01-13T08:46:51.072Z,5.58
2023-01-13T08:51:43.903Z,5.66
2023-01-13T08:56:36.810Z,5.72
2023-01-13T09:01:30.140Z,5.78
2023-01-13T09:06:23.183Z,5.83
2023-01-13T09:11:47.993Z,5.86
2023-01-13T09:16:40.852Z,5.92
2023-01-13T09:21:33.738Z,5.98
2023-01-13T09:26:26.783Z,6.05
2023-01-13T09:31:19.621Z,6.09
2023-01-13T09:36:12.562Z,6.12
2023-01-13T09:41:26.989Z,6.15
2023-01-13T09:46:47.556Z,6.16
2023-01-13T09:51:46.846Z,6.19
2023-01-13T09:56:39.710Z,6.24
2023-01-13T10:01:54.979Z,6.28
2023-01-13T10:06:56.735Z,6.31
2023-01-13T10:12:12.323Z,6.35
2023-01-13T10:17:21.470Z,6.41
2023-01-13T10:22:23.805Z,6.43
2023-01-13T10:27:35.019Z,6.43
2023-01-13T10:32:27.975Z,6.44
2023-01-13T10:37:29.466Z,6.45
2023-01-13T10:42:24.688Z,6.47
2023-01-13T10:47:31.324Z,6.49
2023-01-13T10:52:31.712Z,6.51
2023-01-13T10:57:28.833Z,6.50
2023-01-13T11:02:32.452Z,6.50
2023-01-13T11:07:31.420Z,6.52
2023-01-13T11:12:36.540Z,6.55
2023-01-13T11:17:45.652Z,6.56
2023-01-13T11:22:43.410Z,6.59
2023-01-13T11:27:42.078Z,6.63
2023-01-13T11:32:40.715Z,6.72
2023-01-13T11:37:42.275Z,6.79
2023-01-13T11:42:41.157Z,6.88
2023-01-13T11:47:36.693Z,6.94
2023-01-13T11:52:51.525Z,7.00
2023-01-13T11:58:22.640Z,7.05
2023-01-13T12:03:35.741Z,7.06
2023-01-13T12:08:50.137Z,7.12
2023-01-13T12:13:48.658Z,7.23
2023-01-13T12:19:19.527Z,7.35
2023-01-13T12:24:21.199Z,7.41
2023-01-13T12:29:19.174Z,7.42
2023-01-13T12:34:49.460Z,7.42
2023-01-13T12:40:27.176Z,7.44
2023-01-13T12:45:20.042Z,7.47
2023-01-13T12:50:24.942Z,7.47
2023-01-13T12:55:21.661Z,7.44
2023-01-13T13:00:16.336Z,7.42
2023-01-13T13:05:15.478Z,7.39
2023-01-13T13:10:33.149Z,7.33
2023-01-13T13:15:29.592Z,7.32
2023-01-13T13:21:02.913Z,7.37
2023-01-13T13:26:06.518Z,7.43
2023-01-13T13:31:18.497Z,7.44
2023-01-13T13:36:36.226Z,7.43
2023-01-13T13:41:46.772Z,7.41
2023-01-13T13:46:50.299Z,7.37
2023-01-13T13:52:03.382Z,7.34
2023-01-13T13:56:56.533Z,7.30
2023-01-13T14:02:01.744Z,7.25
2023-01-13T14:07:05.146Z,7.17
2023-01-13T14:12:07.848Z,7.11
2023-01-13T14:17:00.724Z,7.05
2023-01-13T14:21:54.910Z,7.00
2023-01-13T14:26:52.041Z,6.97
2023-01-13T14:31:45.467Z,6.94
2023-01-13T14:36:39.541Z,6.91
2023-01-13T14:41:38.098Z,6.88
2023-01-13T14:46:47.159Z,6.85
2023-01-13T14:51:40.063Z,6.82
2023-01-13T14:56:53.870Z,6.81
2023-01-13T15:01:46.884Z,6.79
2023-01-13T15:06:39.956Z,6.79
2023-01-13T15:11:32.873Z,6.77
2023-01-13T15:16:27.704Z,6.76
2023-01-13T15:21:20.765Z,6.76
2023-01-13T15:26:20.821Z,6.76
2023-01-13T15:31:13.666Z,6.76
2023-01-13T15:36:17.016Z,6.76
2023-01-13T15:41:11.548Z,6.77
2023-01-13T15:46:29.168Z,6.77
2023-01-13T15:51:22.065Z,6.78
2023-01-13T15:56:26.740Z,6.80
2023-01-13T16:01:20.086Z,6.80
2023-01-13T16:06:19.517Z,6.80
2023-01-13T16:11:13.422Z,6.81
2023-01-13T16:16:20.047Z,6.81
2023-01-13T16:21:14.383Z,6.82
2023-01-13T16:26:08.703Z,6.84
2023-01-13T16:31:04.062Z,6.86
2023-01-13T16:36:10.607Z,6.87
2023-01-13T16:41:06.514Z,6.90
2023-01-13T16:45:59.488Z,6.91
2023-01-13T16:50:52.761Z,6.91
2023-01-13T16:55:45.847Z,6.93
2023-01-13T17:00:38.716Z,6.92
2023-01-13T17:05:32.118Z,6.92
2023-01-13T17:10:29.753Z,6.92
2023-01-13T17:15:23.226Z,6.91
2023-01-13T17:20:18.353Z,6.91
2023-01-13T17:25:13.300Z,6.90
2023-01-13T17:30:07.187Z,6.89
2023-01-13T17:35:01.861Z,6.90
2023-01-13T17:39:55.946Z,6.91
2023-01-13T17:44:50.671Z,6.91
2023-01-13T17:49:43.482Z,6.91
2023-01-13T17:54:36.326Z,6.91
2023-01-13T17:59:29.148Z,6.86
2023-01-13T18:04:27.215Z,6.81
2023-01-13T18:09:20.553Z,6.75
2023-01-13T18:14:13.634Z,6.70
2023-01-13T18:19:20.949Z,6.65
2023-01-13T18:24:34.356Z,6.61
2023-01-13T18:29:27.232Z,6.57
2023-01-13T18:34:21.054Z,6.55
2023-01-13T18:39:14.035Z,6.54
2023-01-13T18:44:06.961Z,6.53
2023-01-13T18:48:59.755Z,6.51
2023-01-13T18:53:54.075Z,6.51
2023-01-13T18:58:52.265Z,6.50
2023-01-13T19:03:45.129Z,6.49
2023-01-13T19:08:37.995Z,6.48
2023-01-13T19:13:30.981Z,6.48
2023-01-13T19:18:24.140Z,6.48
2023-01-13T19:23:17.515Z,6.47
2023-01-13T19:28:10.314Z,6.47
2023-01-13T19:33:03.156Z,6.49
2023-01-13T19:37:56.461Z,6.51
2023-01-13T19:43:06.626Z,6.53
2023-01-13T19:48:02.618Z,6.54
2023-01-13T19:52:55.578Z,6.56
2023-01-13T19:57:48.622Z,6.58
2023-01-13T20:02:48.014Z,6.60
2023-01-13T20:07:40.995Z,6.61
2023-01-13T20:12:33.774Z,6.61
2023-01-13T20:17:26.680Z,6.60
2023-01-13T20:22:19.748Z,6.59
2023-01-13T20:27:12.645Z,6.61
2023-01-13T20:32:05.687Z,6.62
2023-01-13T20:36:58.540Z,6.62
2023-01-13T20:42:09.415Z,6.61
2023-01-13T20:47:02.974Z,6.60
2023-01-13T20:51:57.117Z,6.59
2023-01-13T20:56:50.445Z,6.59
2023-01-13T21:01:43.938Z,6.56
2023-01-13T21:06:36.878Z,6.54
2023-01-13T21:11:47.444Z,6.53
2023-01-13T21:16:40.625Z,6.52
2023-01-13T21:21:33.504Z,6.53
2023-01-13T21:26:26.352Z,6.53
2023-01-13T21:31:19.301Z,6.51
2023-01-13T21:36:16.814Z,6.48
2023-01-13T21:41:13.121Z,6.47
2023-01-13T21:46:30.587Z,6.45
2023-01-13T21:51:23.450Z,6.43
2023-01-13T21:56:16.402Z,6.43
2023-01-13T22:01:10.071Z,6.38
2023-01-13T22:06:05.099Z,6.34
2023-01-13T22:11:00.812Z,6.30
2023-01-13T22:15:53.729Z,6.25
2023-01-13T22:20:47.276Z,6.20
2023-01-13T22:25:40.065Z,6.19
2023-01-13T22:30:33.369Z,6.18
2023-01-13T22:35:26.233Z,6.19
2023-01-13T22:40:19.193Z,6.17
2023-01-13T22:45:14.521Z,6.09
2023-01-13T22:50:09.121Z,5.98
2023-01-13T22:55:02.178Z,5.87
2023-01-13T22:59:55.416Z,5.75
2023-01-13T23:04:48.419Z,5.63
2023-01-13T23:09:41.363Z,5.52
2023-01-13T23:14:34.354Z,5.43
2023-01-13T23:19:27.309Z,5.36
2023-01-13T23:24:20.867Z,5.30
2023-01-13T23:29:14.827Z,5.25
2023-01-13T23:34:08.688Z,5.16
2023-01-13T23:39:01.559Z,5.10
2023-01-13T23:44:00.065Z,5.00
2023-01-13T23:48:55.497Z,4.93
2023-01-13T23:53:50.615Z,4.87
2023-01-13T23:58:44.672Z,4.80
